createdAt,value
2018-01-30T00:03:57.608Z,23.20
2018-01-30T00:14:13.031Z,23.10
2018-01-30T00:24:22.455Z,23.00
2018-01-30T00:34:38.149Z,23.40
2018-01-30T00:44:49.012Z,22.90
2018-01-30T00:54:59.899Z,22.90
2018-01-30T01:05:12.619Z,22.80
2018-01-30T01:15:26.627Z,22.70
2018-01-30T01:25:39.740Z,22.70
2018-01-30T01:35:54.243Z,22.60
2018-01-30T01:46:07.321Z,22.50
2018-01-30T01:56:21.763Z,22.50
2018-01-30T02:06:31.188Z,22.60
2018-01-30T02:16:45.094Z,22.40
2018-01-30T02:26:55.364Z,22.20
2018-01-30T02:37:05.005Z,22.10
2018-01-30T02:47:16.002Z,22.10
2018-01-30T02:57:28.907Z,22.10
2018-01-30T03:07:42.635Z,21.90
2018-01-30T03:17:51.193Z,21.80
2018-01-30T03:28:00.331Z,21.70
2018-01-30T03:38:20.465Z,20.20
2018-01-30T03:48:30.938Z,20.30
2018-01-30T03:58:42.748Z,20.50
2018-01-30T04:08:58.820Z,20.40
2018-01-30T04:19:11.709Z,20.50
2018-01-30T04:29:23.612Z,20.70
2018-01-30T04:39:42.317Z,20.70
2018-01-30T04:49:51.160Z,20.60
2018-01-30T05:00:00.527Z,20.70
2018-01-30T05:10:22.361Z,20.70
2018-01-30T05:20:32.501Z,20.60
2018-01-30T05:30:46.429Z,20.70
2018-01-30T05:41:01.429Z,20.70
2018-01-30T05:51:14.824Z,21.20
2018-01-30T06:01:31.305Z,20.70
2018-01-30T06:11:40.882Z,20.70
2018-01-30T06:21:58.145Z,20.60
2018-01-30T06:32:09.981Z,20.80
2018-01-30T06:42:29.035Z,20.80
2018-01-30T06:52:41.565Z,20.90
2018-01-30T07:02:57.267Z,21.00
2018-01-30T07:13:10.993Z,21.10
2018-01-30T07:23:23.327Z,21.10
2018-01-30T07:33:34.528Z,21.20
2018-01-30T07:43:46.694Z,21.30
2018-01-30T07:54:04.564Z,21.60
2018-01-30T08:04:20.801Z,24.70
2018-01-30T08:14:32.385Z,26.20
2018-01-30T08:24:44.489Z,25.40
2018-01-30T08:34:55.116Z,25.30
2018-01-30T08:45:06.350Z,25.20
2018-01-30T08:55:15.371Z,25.20
2018-01-30T09:05:33.169Z,25.00
2018-01-30T09:15:48.993Z,25.00
2018-01-30T09:25:59.199Z,24.90
2018-01-30T09:36:10.057Z,24.80
2018-01-30T09:46:20.227Z,24.70
2018-01-30T09:56:33.248Z,24.80
2018-01-30T10:06:47.939Z,24.80
2018-01-30T10:16:59.462Z,25.50
2018-01-30T10:27:08.298Z,25.50
2018-01-30T10:37:31.109Z,30.60
2018-01-30T10:47:45.152Z,34.70
2018-01-30T10:57:55.437Z,34.70
2018-01-30T11:08:05.819Z,37.00
2018-01-30T11:18:14.951Z,37.80
2018-01-30T11:28:25.900Z,39.30
2018-01-30T11:38:44.060Z,39.20
2018-01-30T11:48:54.516Z,39.20
2018-01-30T11:59:04.403Z,39.70
2018-01-30T12:09:15.350Z,40.20
2018-01-30T12:19:27.174Z,40.30
2018-01-30T12:29:39.750Z,40.30
2018-01-30T12:39:52.254Z,40.20
2018-01-30T12:50:02.547Z,37.70
2018-01-30T13:00:12.170Z,40.00
2018-01-30T13:10:22.902Z,39.80
2018-01-30T13:20:32.192Z,40.00
2018-01-30T13:30:47.355Z,40.00
2018-01-30T13:40:58.911Z,39.90
2018-01-30T13:51:09.550Z,39.80
2018-01-30T14:01:22.081Z,39.90
2018-01-30T14:11:34.743Z,39.70
2018-01-30T14:21:50.118Z,39.50
2018-01-30T14:32:02.815Z,39.00
2018-01-30T14:42:15.068Z,39.00
2018-01-30T14:52:23.368Z,38.50
2018-01-30T15:02:36.583Z,38.90
2018-01-30T15:12:51.295Z,37.70
2018-01-30T15:23:02.716Z,35.70
2018-01-30T15:43:26.425Z,35.40
2018-01-30T15:53:35.128Z,34.70
2018-01-30T16:03:48.166Z,32.20
2018-01-30T16:13:59.230Z,30.90
2018-01-30T16:24:10.344Z,32.30
2018-01-30T16:34:18.681Z,32.20
2018-01-30T16:44:29.695Z,32.20
2018-01-30T16:54:43.679Z,32.20
2018-01-30T17:04:53.167Z,29.60
2018-01-30T17:15:01.810Z,29.60
2018-01-30T17:25:14.879Z,29.50
2018-01-30T17:35:22.917Z,29.00
2018-01-30T17:45:32.461Z,28.80
2018-01-30T17:55:40.876Z,28.80
2018-01-30T18:05:50.514Z,28.30
2018-01-30T18:16:01.318Z,28.20
2018-01-30T18:26:09.602Z,28.20
2018-01-30T18:36:20.408Z,28.20
2018-01-30T18:46:31.025Z,28.10
2018-01-30T18:56:40.677Z,28.10
2018-01-30T19:06:56.826Z,27.70
2018-01-30T19:17:06.396Z,27.70
2018-01-30T19:27:16.609Z,27.70
2018-01-30T19:37:29.175Z,27.60
2018-01-30T19:47:39.547Z,27.60
2018-01-30T19:57:48.423Z,27.60
2018-01-30T20:07:56.716Z,27.60
2018-01-30T20:18:06.567Z,27.60
2018-01-30T20:28:20.031Z,27.50
2018-01-30T20:38:29.687Z,27.50
2018-01-30T20:48:39.060Z,27.40
2018-01-30T20:58:48.432Z,27.40
2018-01-30T21:08:56.269Z,27.30
2018-01-30T21:19:12.418Z,27.10
2018-01-30T21:29:24.335Z,27.10
2018-01-30T21:39:34.300Z,27.00
2018-01-30T21:49:44.204Z,26.90
2018-01-30T21:59:53.150Z,26.70
2018-01-30T22:10:04.047Z,26.70
2018-01-30T22:20:12.678Z,26.70
2018-01-30T22:30:23.461Z,26.60
2018-01-30T22:40:31.782Z,26.60
